createdAt,value
2023-04-23T00:04:36.818Z,3.60
2023-04-23T00:09:41.114Z,3.07
2023-04-23T00:14:46.090Z,3.30
2023-04-23T00:19:49.254Z,3.00
2023-04-23T00:24:52.461Z,2.17
2023-04-23T00:29:57.008Z,2.50
2023-04-23T00:35:00.189Z,3.20
2023-04-23T00:40:04.593Z,4.53
2023-04-23T00:45:10.164Z,3.53
2023-04-23T00:50:13.534Z,2.90
2023-04-23T00:55:17.045Z,3.10
2023-04-23T01:00:21.788Z,3.43
2023-04-23T01:05:25.207Z,3.60
2023-04-23T01:10:28.526Z,3.20
2023-04-23T01:15:33.101Z,3.63
2023-04-23T01:20:37.698Z,3.97
2023-04-23T01:25:42.447Z,3.10
2023-04-23T01:30:46.439Z,3.40
2023-04-23T01:35:51.280Z,3.30
2023-04-23T01:40:55.833Z,4.07
2023-04-23T01:45:59.564Z,2.83
2023-04-23T01:51:02.951Z,3.20
2023-04-23T01:56:09.898Z,3.50
2023-04-23T02:01:13.096Z,2.90
2023-04-23T02:06:16.341Z,3.60
2023-04-23T02:11:20.933Z,3.27
2023-04-23T02:16:24.931Z,4.43
2023-04-23T02:21:28.780Z,3.63
2023-04-23T02:26:33.326Z,3.20
2023-04-23T02:31:36.500Z,4.73
2023-04-23T02:36:39.870Z,3.57
2023-04-23T02:41:44.380Z,3.47
2023-04-23T02:46:47.509Z,3.50
2023-04-23T02:51:50.892Z,3.63
2023-04-23T02:56:55.430Z,3.33
2023-04-23T03:01:58.658Z,2.80
2023-04-23T03:07:02.103Z,2.80
2023-04-23T03:12:06.839Z,3.57
2023-04-23T03:17:10.067Z,3.50
2023-04-23T03:22:13.178Z,2.90
2023-04-23T03:27:17.699Z,3.77
2023-04-23T03:32:20.931Z,3.43
2023-04-23T03:37:24.137Z,3.33
2023-04-23T03:42:28.612Z,3.40
2023-04-23T03:47:31.850Z,3.20
2023-04-23T03:52:34.993Z,5.07
2023-04-23T03:57:39.827Z,4.67
2023-04-23T04:02:43.155Z,3.33
2023-04-23T04:07:46.386Z,3.03
2023-04-23T04:12:51.246Z,3.43
2023-04-23T04:17:54.549Z,3.73
2023-04-23T04:22:57.727Z,3.53
2023-04-23T04:28:03.621Z,4.43
2023-04-23T04:33:06.817Z,3.53
2023-04-23T04:38:10.010Z,3.97
2023-04-23T04:43:14.534Z,4.97
2023-04-23T04:48:17.745Z,3.80
2023-04-23T04:53:20.906Z,3.40
2023-04-23T04:58:25.542Z,4.03
2023-04-23T05:03:28.958Z,3.10
2023-04-23T05:08:32.247Z,2.40
2023-04-23T05:13:36.751Z,4.03
2023-04-23T05:18:39.906Z,2.37
2023-04-23T05:23:43.039Z,4.80
2023-04-23T05:28:47.518Z,2.50
2023-04-23T05:33:51.040Z,3.00
2023-04-23T05:38:54.312Z,2.80
2023-04-23T05:43:58.797Z,3.33
2023-04-23T05:49:02.141Z,3.40
2023-04-23T05:54:05.755Z,3.47
2023-04-23T05:59:10.979Z,3.30
2023-04-23T06:04:14.338Z,3.97
2023-04-23T06:09:18.751Z,2.90
2023-04-23T06:14:23.316Z,4.03
2023-04-23T06:19:27.850Z,3.23
2023-04-23T06:24:31.208Z,3.07
2023-04-23T06:29:35.678Z,2.53
2023-04-23T06:34:46.754Z,2.30
2023-04-23T06:39:52.949Z,2.43
2023-04-23T06:44:59.498Z,2.47
2023-04-23T06:50:02.651Z,2.63
2023-04-23T06:55:06.363Z,3.03
2023-04-23T07:00:12.716Z,1.97
2023-04-23T07:05:16.459Z,2.70
2023-04-23T07:10:20.057Z,2.77
2023-04-23T07:15:24.633Z,2.07
2023-04-23T07:20:27.738Z,1.73
2023-04-23T07:25:31.144Z,2.73
2023-04-23T07:30:35.611Z,1.87
2023-04-23T07:35:38.759Z,2.00
2023-04-23T07:40:41.938Z,2.80
2023-04-23T07:45:46.397Z,1.53
2023-04-23T07:50:49.575Z,1.50
2023-04-23T07:55:52.663Z,1.50
2023-04-23T08:00:57.145Z,1.67
2023-04-23T08:06:00.415Z,2.40
2023-04-23T08:11:03.604Z,1.73
2023-04-23T08:16:08.347Z,1.60
2023-04-23T08:21:12.904Z,1.60
2023-04-23T08:26:16.199Z,2.03
2023-04-23T08:31:26.263Z,1.37
2023-04-23T08:36:30.283Z,1.80
2023-04-23T08:41:36.483Z,3.90
2023-04-23T08:46:44.521Z,2.40
2023-04-23T08:51:51.780Z,2.40
2023-04-23T08:56:57.622Z,2.33
2023-04-23T09:02:08.017Z,2.00
2023-04-23T09:07:12.577Z,2.50
2023-04-23T09:12:16.692Z,2.00
2023-04-23T09:17:22.093Z,2.67
2023-04-23T09:22:46.563Z,2.50
2023-04-23T09:27:51.620Z,2.43
2023-04-23T09:32:56.307Z,2.60
2023-04-23T09:37:59.506Z,2.37
2023-04-23T09:43:05.444Z,2.30
2023-04-23T09:48:09.993Z,2.30
2023-04-23T09:53:15.886Z,2.70
2023-04-23T09:58:19.412Z,2.50
2023-04-23T10:03:28.594Z,2.97
2023-04-23T10:08:33.666Z,2.50
2023-04-23T10:13:37.501Z,2.57
2023-04-23T10:18:42.441Z,2.13
2023-04-23T10:23:48.262Z,2.43
2023-04-23T10:28:55.186Z,2.20
2023-04-23T10:34:02.073Z,2.00
2023-04-23T10:39:09.350Z,2.27
2023-04-23T10:44:15.928Z,2.23
2023-04-23T10:49:20.968Z,3.23
2023-04-23T10:54:29.219Z,2.40
2023-04-23T10:59:33.832Z,2.10
2023-04-23T11:04:43.911Z,2.30
2023-04-23T11:09:48.373Z,2.00
2023-04-23T11:14:52.871Z,2.00
2023-04-23T11:20:13.497Z,1.90
2023-04-23T11:25:22.015Z,1.87
2023-04-23T11:30:26.482Z,1.67
2023-04-23T11:35:39.590Z,1.77
2023-04-23T11:40:42.938Z,2.00
2023-04-23T11:45:46.280Z,1.53
2023-04-23T11:50:50.895Z,1.90
2023-04-23T11:55:56.395Z,1.93
2023-04-23T12:01:00.707Z,2.13
2023-04-23T12:06:05.621Z,1.83
2023-04-23T12:11:08.791Z,1.80
2023-04-23T12:16:11.992Z,1.80
2023-04-23T12:21:18.227Z,1.93
2023-04-23T12:26:21.564Z,1.73
2023-04-23T12:31:26.218Z,1.80
2023-04-23T12:36:31.935Z,2.30
2023-04-23T12:41:35.041Z,1.53
2023-04-23T12:46:38.181Z,1.83
2023-04-23T12:51:42.639Z,1.60
2023-04-23T12:56:45.719Z,1.80
2023-04-23T13:01:51.728Z,1.77
2023-04-23T13:06:56.639Z,1.63
2023-04-23T13:12:00.344Z,2.00
2023-04-23T13:17:03.813Z,1.90
2023-04-23T13:22:08.279Z,2.30
2023-04-23T13:27:12.127Z,1.70
2023-04-23T13:32:16.357Z,1.63
2023-04-23T13:37:20.824Z,1.93
2023-04-23T13:42:23.938Z,2.07
2023-04-23T13:47:27.358Z,1.73
2023-04-23T13:52:31.996Z,1.80
2023-04-23T13:57:35.163Z,1.90
2023-04-23T14:02:38.396Z,1.97
2023-04-23T14:07:42.951Z,2.00
2023-04-23T14:12:46.266Z,2.80
2023-04-23T14:17:49.921Z,2.10
2023-04-23T14:22:58.480Z,2.00
2023-04-23T14:28:10.558Z,2.03
2023-04-23T14:33:13.630Z,1.80
2023-04-23T14:38:19.463Z,2.60
2023-04-23T14:43:22.782Z,1.90
2023-04-23T14:48:25.866Z,1.60
2023-04-23T14:53:30.334Z,2.00
2023-04-23T14:58:33.441Z,1.90
2023-04-23T15:03:36.948Z,1.97
2023-04-23T15:08:41.565Z,1.97
2023-04-23T15:13:51.455Z,2.07
2023-04-23T15:18:54.540Z,1.90
2023-04-23T15:23:59.196Z,2.00
2023-04-23T15:29:03.135Z,1.87
2023-04-23T15:34:12.257Z,2.10
2023-04-23T15:39:16.862Z,2.33
2023-04-23T15:44:19.999Z,1.70
2023-04-23T15:49:23.052Z,2.03
2023-04-23T15:54:27.537Z,1.83
2023-04-23T15:59:30.626Z,1.80
2023-04-23T16:04:33.818Z,1.97
2023-04-23T16:09:38.513Z,2.70
2023-04-23T16:14:42.703Z,2.40
2023-04-23T16:19:46.513Z,2.30
2023-04-23T16:24:50.960Z,2.40
2023-04-23T16:29:54.069Z,2.20
2023-04-23T16:34:57.456Z,1.93
2023-04-23T16:40:02.163Z,2.10
2023-04-23T16:45:06.056Z,2.37
2023-04-23T16:50:10.171Z,2.20
2023-04-23T16:55:14.708Z,2.17
2023-04-23T17:00:18.566Z,2.10
2023-04-23T17:05:24.976Z,2.17
2023-04-23T17:10:29.513Z,2.40
2023-04-23T17:15:32.656Z,2.33
2023-04-23T17:20:36.571Z,2.50
2023-04-23T17:25:41.124Z,4.50
2023-04-23T17:30:45.390Z,2.47
2023-04-23T17:35:51.931Z,2.27
2023-04-23T17:40:56.971Z,2.20
2023-04-23T17:46:00.124Z,2.43
2023-04-23T17:51:03.345Z,2.47
2023-04-23T17:56:07.862Z,2.30
2023-04-23T18:01:11.569Z,2.20
2023-04-23T18:06:14.684Z,2.23
2023-04-23T18:11:19.812Z,2.77
2023-04-23T18:16:23.007Z,2.40
2023-04-23T18:21:26.380Z,2.60
2023-04-23T18:26:31.274Z,2.40
2023-04-23T18:31:34.573Z,2.67
2023-04-23T18:36:42.737Z,2.47
2023-04-23T18:41:48.452Z,3.43
2023-04-23T18:46:53.291Z,3.10
2023-04-23T18:51:57.073Z,3.20
2023-04-23T18:57:01.766Z,3.40
2023-04-23T19:02:05.551Z,3.20
2023-04-23T19:07:11.521Z,2.90
2023-04-23T19:12:16.114Z,3.27
2023-04-23T19:17:19.247Z,2.43
2023-04-23T19:22:25.088Z,2.13
2023-04-23T19:27:29.700Z,1.20
2023-04-23T19:32:34.153Z,2.80
2023-04-23T19:37:37.314Z,2.77
2023-04-23T19:42:44.180Z,1.00
2023-04-23T19:47:47.994Z,1.80
2023-04-23T19:52:51.310Z,1.10
2023-04-23T19:57:56.822Z,1.13
2023-04-23T20:03:00.130Z,1.07
2023-04-23T20:08:07.077Z,3.90
2023-04-23T20:13:11.617Z,1.27
2023-04-23T20:18:14.942Z,3.33
2023-04-23T20:23:18.126Z,1.00
2023-04-23T20:28:22.755Z,2.43
2023-04-23T20:33:26.805Z,1.53
2023-04-23T20:38:33.245Z,1.53
2023-04-23T20:43:38.716Z,2.60
2023-04-23T20:48:43.401Z,3.53
2023-04-23T20:53:46.718Z,1.40
2023-04-23T20:58:51.397Z,1.17
2023-04-23T21:03:55.008Z,1.00
2023-04-23T21:08:58.427Z,1.80
2023-04-23T21:14:03.024Z,2.47
2023-04-23T21:19:07.051Z,2.37
2023-04-23T21:24:10.142Z,4.10
2023-04-23T21:29:14.637Z,1.47
2023-04-23T21:34:17.874Z,1.60
2023-04-23T21:39:21.140Z,1.70
2023-04-23T21:44:28.518Z,1.67
2023-04-23T21:49:32.841Z,1.30
2023-04-23T21:54:35.973Z,1.50
2023-04-23T21:59:40.750Z,1.43
2023-04-23T22:04:44.656Z,1.50
2023-04-23T22:09:48.298Z,1.57
2023-04-23T22:14:52.825Z,1.43
2023-04-23T22:19:55.938Z,2.30
2023-04-23T22:24:59.130Z,1.83
2023-04-23T22:30:04.809Z,1.40
2023-04-23T22:35:09.355Z,2.70
2023-04-23T22:40:12.904Z,2.60
2023-04-23T22:45:17.498Z,1.40
2023-04-23T22:50:21.020Z,1.33
2023-04-23T22:55:24.186Z,2.13
2023-04-23T23:00:29.160Z,2.57
2023-04-23T23:05:32.317Z,1.50
2023-04-23T23:10:35.626Z,1.70
2023-04-23T23:15:40.125Z,1.70
2023-04-23T23:20:45.205Z,1.53
2023-04-23T23:25:48.520Z,3.07
2023-04-23T23:30:53.833Z,1.50
2023-04-23T23:35:57.538Z,1.20
2023-04-23T23:41:00.660Z,1.80
2023-04-23T23:46:05.273Z,1.57
2023-04-23T23:51:08.494Z,1.63
2023-04-23T23:56:11.618Z,1.80
